Aviation Digital Data Service (ADDS)

Output produced by METARs form (0509 UTC 19 February 2019)
found at http://www.aviationweather.gov/metar/data/
 
Forecast for: OTHH (DOHA HAMAD INTL , QA)
Text: TAF OTHH 182300Z 1900/2006 31008KT CAVOK
Forecast period: 0000 to 1400 UTC 19 February 2019
Forecast type: FROM: standard forecast or significant change
Winds: from the NW (310 degrees) at 9 MPH (8 knots; 4.1 m/s)
Visibility: 6 or more miles 10+ km)
Ceiling: unknown
Clouds: missing
Weather: NSW  (no significant weather)
Text: TEMPO 1910/1914 05010KT
Forecast period: 1000 to 1400 UTC 19 February 2019
Forecast type: TEMPORARY: The following changes expected for less than half the time period
Winds: from the NE (50 degrees) at 12 MPH (10 knots; 5.1 m/s)
Visibility: missing
Ceiling: unknown
Clouds: missing
Weather: no significant weather forecast for this period
Text: BECMG 1914/1916 33020G30KT 8000 NSC
Forecast period: 1400 UTC 19 February 2019 to 0600 UTC 20 February 2019
Forecast type: BECOMING: Conditions expected to become as follows by 1600 UTC 19 February 2019
Winds: from the NNW (330 degrees) at 23 MPH (20 knots; 10.3 m/s)
gusting to 34 MPH (30 knots; 15.4 m/s)
Visibility: 5 miles (8 km)
Ceiling: unknown
Clouds: missing
Weather: NSW  (no significant weather)